sensor_id;sensor_type;location;lat;lon;timestamp;temperature;humidity
23116;DHT22;11727;52.134;5.052;2023-03-03T00:00:35;1.80;99.90
23116;DHT22;11727;52.134;5.052;2023-03-03T00:03:01;1.80;99.90
23116;DHT22;11727;52.134;5.052;2023-03-03T00:05:30;1.80;99.90
23116;DHT22;11727;52.134;5.052;2023-03-03T00:07:56;1.80;99.90
23116;DHT22;11727;52.134;5.052;2023-03-03T00:10:21;1.70;99.90
23116;DHT22;11727;52.134;5.052;2023-03-03T00:12:47;1.80;99.90
23116;DHT22;11727;52.134;5.052;2023-03-03T00:15:17;1.70;99.90
23116;DHT22;11727;52.134;5.052;2023-03-03T00:17:43;1.80;99.90
23116;DHT22;11727;52.134;5.052;2023-03-03T00:22:53;1.80;99.90
23116;DHT22;11727;52.134;5.052;2023-03-03T00:25:36;1.90;99.90
23116;DHT22;11727;52.134;5.052;2023-03-03T00:30:46;1.80;99.90
23116;DHT22;11727;52.134;5.052;2023-03-03T00:38:46;1.90;99.90
23116;DHT22;11727;52.134;5.052;2023-03-03T00:41:19;1.90;99.90
23116;DHT22;11727;52.134;5.052;2023-03-03T00:43:46;1.90;99.90
23116;DHT22;11727;52.134;5.052;2023-03-03T00:46:14;1.90;99.90
23116;DHT22;11727;52.134;5.052;2023-03-03T00:48:41;1.90;99.90
23116;DHT22;11727;52.134;5.052;2023-03-03T00:51:26;1.90;99.90
23116;DHT22;11727;52.134;5.052;2023-03-03T00:53:52;1.90;99.90
23116;DHT22;11727;52.134;5.052;2023-03-03T00:56:17;1.90;99.90
23116;DHT22;11727;52.134;5.052;2023-03-03T00:58:43;1.90;99.90
23116;DHT22;11727;52.134;5.052;2023-03-03T01:01:10;2.00;99.90
23116;DHT22;11727;52.134;5.052;2023-03-03T01:03:35;1.90;99.90
23116;DHT22;11727;52.134;5.052;2023-03-03T01:06:01;1.90;99.90
23116;DHT22;11727;52.134;5.052;2023-03-03T01:08:26;1.90;99.90
23116;DHT22;11727;52.134;5.052;2023-03-03T01:10:56;1.90;99.90
23116;DHT22;11727;52.134;5.052;2023-03-03T01:13:24;1.90;99.90
23116;DHT22;11727;52.134;5.052;2023-03-03T01:15:50;1.90;99.90
23116;DHT22;11727;52.134;5.052;2023-03-03T01:18:16;1.90;99.90
23116;DHT22;11727;52.134;5.052;2023-03-03T01:20:41;1.90;99.90
23116;DHT22;11727;52.134;5.052;2023-03-03T01:23:07;1.90;99.90
23116;DHT22;11727;52.134;5.052;2023-03-03T01:25:32;1.80;99.90
23116;DHT22;11727;52.134;5.052;2023-03-03T01:27:58;1.80;99.90
23116;DHT22;11727;52.134;5.052;2023-03-03T01:30:24;1.80;99.90
23116;DHT22;11727;52.134;5.052;2023-03-03T01:32:50;1.70;99.90
23116;DHT22;11727;52.134;5.052;2023-03-03T01:35:15;1.70;99.90
23116;DHT22;11727;52.134;5.052;2023-03-03T01:37:41;1.60;99.90
23116;DHT22;11727;52.134;5.052;2023-03-03T01:40:10;1.60;99.90
23116;DHT22;11727;52.134;5.052;2023-03-03T01:42:36;1.50;99.90
23116;DHT22;11727;52.134;5.052;2023-03-03T01:45:16;1.50;99.90
23116;DHT22;11727;52.134;5.052;2023-03-03T01:47:43;1.40;99.90
23116;DHT22;11727;52.134;5.052;2023-03-03T01:50:11;1.30;99.90
23116;DHT22;11727;52.134;5.052;2023-03-03T01:52:40;1.20;99.90
23116;DHT22;11727;52.134;5.052;2023-03-03T01:55:08;1.20;99.90
23116;DHT22;11727;52.134;5.052;2023-03-03T01:57:36;1.10;99.90
23116;DHT22;11727;52.134;5.052;2023-03-03T02:00:03;1.10;99.90
23116;DHT22;11727;52.134;5.052;2023-03-03T02:02:29;1.00;99.90
23116;DHT22;11727;52.134;5.052;2023-03-03T02:04:56;1.00;99.90
23116;DHT22;11727;52.134;5.052;2023-03-03T02:07:21;0.90;99.90
23116;DHT22;11727;52.134;5.052;2023-03-03T02:09:50;1.00;99.90
23116;DHT22;11727;52.134;5.052;2023-03-03T02:12:17;1.00;99.90
23116;DHT22;11727;52.134;5.052;2023-03-03T02:14:43;1.00;99.90
23116;DHT22;11727;52.134;5.052;2023-03-03T02:17:09;1.00;99.90
23116;DHT22;11727;52.134;5.052;2023-03-03T02:22:00;1.00;99.90
23116;DHT22;11727;52.134;5.052;2023-03-03T02:24:27;1.10;99.90
23116;DHT22;11727;52.134;5.052;2023-03-03T02:26:56;1.10;99.90
23116;DHT22;11727;52.134;5.052;2023-03-03T02:29:22;1.20;99.90
23116;DHT22;11727;52.134;5.052;2023-03-03T02:31:48;1.10;99.90
23116;DHT22;11727;52.134;5.052;2023-03-03T02:34:13;1.10;99.90
23116;DHT22;11727;52.134;5.052;2023-03-03T02:36:39;1.20;99.90
23116;DHT22;11727;52.134;5.052;2023-03-03T02:44:15;1.20;99.90
23116;DHT22;11727;52.134;5.052;2023-03-03T02:46:43;1.20;99.90
23116;DHT22;11727;52.134;5.052;2023-03-03T02:49:09;1.20;99.90
23116;DHT22;11727;52.134;5.052;2023-03-03T02:51:35;1.10;99.90
23116;DHT22;11727;52.134;5.052;2023-03-03T02:54:01;1.10;99.90
23116;DHT22;11727;52.134;5.052;2023-03-03T02:56:27;1.20;99.90
23116;DHT22;11727;52.134;5.052;2023-03-03T02:58:53;1.20;99.90
23116;DHT22;11727;52.134;5.052;2023-03-03T03:01:18;1.20;99.90
23116;DHT22;11727;52.134;5.052;2023-03-03T03:03:44;1.10;99.90
23116;DHT22;11727;52.134;5.052;2023-03-03T03:06:10;1.10;99.90
23116;DHT22;11727;52.134;5.052;2023-03-03T03:08:35;1.10;99.90
23116;DHT22;11727;52.134;5.052;2023-03-03T03:11:02;1.20;99.90
23116;DHT22;11727;52.134;5.052;2023-03-03T03:13:27;1.20;99.90
23116;DHT22;11727;52.134;5.052;2023-03-03T03:15:53;1.20;99.90
23116;DHT22;11727;52.134;5.052;2023-03-03T03:18:18;1.10;99.90
23116;DHT22;11727;52.134;5.052;2023-03-03T03:20:44;1.10;99.90
23116;DHT22;11727;52.134;5.052;2023-03-03T03:23:10;1.20;99.90
23116;DHT22;11727;52.134;5.052;2023-03-03T03:25:35;1.10;99.90
23116;DHT22;11727;52.134;5.052;2023-03-03T03:28:10;1.20;99.90
23116;DHT22;11727;52.134;5.052;2023-03-03T03:30:35;1.10;99.90
23116;DHT22;11727;52.134;5.052;2023-03-03T03:33:01;1.10;99.90
23116;DHT22;11727;52.134;5.052;2023-03-03T03:35:26;1.20;99.90
23116;DHT22;11727;52.134;5.052;2023-03-03T03:37:52;1.20;99.90
23116;DHT22;11727;52.134;5.052;2023-03-03T03:40:17;1.20;99.90
23116;DHT22;11727;52.134;5.052;2023-03-03T03:42:43;1.20;99.90
23116;DHT22;11727;52.134;5.052;2023-03-03T03:45:09;1.10;99.90
23116;DHT22;11727;52.134;5.052;2023-03-03T03:47:34;1.10;99.90
23116;DHT22;11727;52.134;5.052;2023-03-03T03:50:00;1.10;99.90
23116;DHT22;11727;52.134;5.052;2023-03-03T03:52:25;1.10;99.90
23116;DHT22;11727;52.134;5.052;2023-03-03T03:54:51;1.20;99.90
23116;DHT22;11727;52.134;5.052;2023-03-03T03:57:16;1.20;99.90
23116;DHT22;11727;52.134;5.052;2023-03-03T03:59:42;1.20;99.90
23116;DHT22;11727;52.134;5.052;2023-03-03T04:02:07;1.20;99.90
23116;DHT22;11727;52.134;5.052;2023-03-03T04:04:33;1.20;99.90
23116;DHT22;11727;52.134;5.052;2023-03-03T04:06:58;1.20;99.90
23116;DHT22;11727;52.134;5.052;2023-03-03T04:09:24;1.20;99.90
23116;DHT22;11727;52.134;5.052;2023-03-03T04:11:49;1.30;99.90
23116;DHT22;11727;52.134;5.052;2023-03-03T04:14:15;1.30;99.90
23116;DHT22;11727;52.134;5.052;2023-03-03T04:16:40;1.30;99.90
23116;DHT22;11727;52.134;5.052;2023-03-03T04:19:06;1.30;99.90
23116;DHT22;11727;52.134;5.052;2023-03-03T04:21:31;1.30;99.90
23116;DHT22;11727;52.134;5.052;2023-03-03T04:23:57;1.30;99.90
23116;DHT22;11727;52.134;5.052;2023-03-03T04:26:22;1.30;99.90
23116;DHT22;11727;52.134;5.052;2023-03-03T04:28:48;1.30;99.90
23116;DHT22;11727;52.134;5.052;2023-03-03T04:31:13;1.30;99.90
23116;DHT22;11727;52.134;5.052;2023-03-03T04:33:39;1.30;99.90
23116;DHT22;11727;52.134;5.052;2023-03-03T04:36:04;1.30;99.90
23116;DHT22;11727;52.134;5.052;2023-03-03T04:38:30;1.30;99.90
23116;DHT22;11727;52.134;5.052;2023-03-03T04:40:56;1.30;99.90
23116;DHT22;11727;52.134;5.052;2023-03-03T04:43:21;1.30;99.90
23116;DHT22;11727;52.134;5.052;2023-03-03T04:45:47;1.30;99.90
23116;DHT22;11727;52.134;5.052;2023-03-03T04:48:12;1.30;99.90
23116;DHT22;11727;52.134;5.052;2023-03-03T04:50:38;1.30;99.90
23116;DHT22;11727;52.134;5.052;2023-03-03T04:53:03;1.30;99.90
23116;DHT22;11727;52.134;5.052;2023-03-03T04:55:29;1.40;99.90
23116;DHT22;11727;52.134;5.052;2023-03-03T04:57:54;1.40;99.90
23116;DHT22;11727;52.134;5.052;2023-03-03T05:00:20;1.40;99.90
23116;DHT22;11727;52.134;5.052;2023-03-03T05:02:46;1.40;99.90
23116;DHT22;11727;52.134;5.052;2023-03-03T05:05:12;1.40;99.90
23116;DHT22;11727;52.134;5.052;2023-03-03T05:07:38;1.50;99.90
23116;DHT22;11727;52.134;5.052;2023-03-03T05:10:04;1.50;99.90
23116;DHT22;11727;52.134;5.052;2023-03-03T05:12:29;1.50;99.90
23116;DHT22;11727;52.134;5.052;2023-03-03T05:14:55;1.50;99.90
23116;DHT22;11727;52.134;5.052;2023-03-03T05:17:20;1.50;99.90
23116;DHT22;11727;52.134;5.052;2023-03-03T05:19:46;1.60;99.90
23116;DHT22;11727;52.134;5.052;2023-03-03T05:22:11;1.60;99.90
23116;DHT22;11727;52.134;5.052;2023-03-03T05:24:37;1.60;99.90
23116;DHT22;11727;52.134;5.052;2023-03-03T05:27:02;1.70;99.90
23116;DHT22;11727;52.134;5.052;2023-03-03T05:29:28;1.70;99.90
23116;DHT22;11727;52.134;5.052;2023-03-03T05:31:56;1.70;99.90
23116;DHT22;11727;52.134;5.052;2023-03-03T05:34:22;1.70;99.90
23116;DHT22;11727;52.134;5.052;2023-03-03T05:36:47;1.70;99.90
23116;DHT22;11727;52.134;5.052;2023-03-03T05:39:13;1.80;99.90
23116;DHT22;11727;52.134;5.052;2023-03-03T05:41:38;1.80;99.90
23116;DHT22;11727;52.134;5.052;2023-03-03T05:44:04;1.80;99.90
23116;DHT22;11727;52.134;5.052;2023-03-03T05:46:30;1.90;99.90
23116;DHT22;11727;52.134;5.052;2023-03-03T05:48:55;1.90;99.90
23116;DHT22;11727;52.134;5.052;2023-03-03T05:51:21;1.90;99.90
23116;DHT22;11727;52.134;5.052;2023-03-03T05:53:46;1.90;99.90
23116;DHT22;11727;52.134;5.052;2023-03-03T05:56:12;1.90;99.90
23116;DHT22;11727;52.134;5.052;2023-03-03T05:58:37;1.90;99.90
23116;DHT22;11727;52.134;5.052;2023-03-03T06:01:03;1.90;99.90
23116;DHT22;11727;52.134;5.052;2023-03-03T06:03:28;1.90;99.90
23116;DHT22;11727;52.134;5.052;2023-03-03T06:05:54;2.00;99.90
23116;DHT22;11727;52.134;5.052;2023-03-03T06:08:19;1.90;99.90
23116;DHT22;11727;52.134;5.052;2023-03-03T06:10:45;1.90;99.90
23116;DHT22;11727;52.134;5.052;2023-03-03T06:13:10;1.90;99.90
23116;DHT22;11727;52.134;5.052;2023-03-03T06:15:36;1.90;99.90
23116;DHT22;11727;52.134;5.052;2023-03-03T06:18:02;1.90;99.90
23116;DHT22;11727;52.134;5.052;2023-03-03T06:20:27;1.90;99.90
23116;DHT22;11727;52.134;5.052;2023-03-03T06:22:53;1.90;99.90
23116;DHT22;11727;52.134;5.052;2023-03-03T06:25:18;1.90;99.90
23116;DHT22;11727;52.134;5.052;2023-03-03T06:27:44;1.90;99.90
23116;DHT22;11727;52.134;5.052;2023-03-03T06:30:10;1.90;99.90
23116;DHT22;11727;52.134;5.052;2023-03-03T06:32:35;2.00;99.90
23116;DHT22;11727;52.134;5.052;2023-03-03T06:35:01;2.00;99.90
23116;DHT22;11727;52.134;5.052;2023-03-03T06:37:26;2.00;99.90
23116;DHT22;11727;52.134;5.052;2023-03-03T06:39:52;2.00;99.90
23116;DHT22;11727;52.134;5.052;2023-03-03T06:42:17;2.00;99.90
23116;DHT22;11727;52.134;5.052;2023-03-03T06:44:44;2.10;99.90
23116;DHT22;11727;52.134;5.052;2023-03-03T06:47:09;2.00;99.90
23116;DHT22;11727;52.134;5.052;2023-03-03T06:49:35;2.00;99.90
23116;DHT22;11727;52.134;5.052;2023-03-03T06:52:00;2.00;99.90
23116;DHT22;11727;52.134;5.052;2023-03-03T06:54:29;2.10;99.90
23116;DHT22;11727;52.134;5.052;2023-03-03T06:56:57;2.10;99.90
23116;DHT22;11727;52.134;5.052;2023-03-03T06:59:23;2.10;99.90
23116;DHT22;11727;52.134;5.052;2023-03-03T07:01:49;2.20;99.90
23116;DHT22;11727;52.134;5.052;2023-03-03T07:04:23;2.20;99.90
23116;DHT22;11727;52.134;5.052;2023-03-03T07:06:50;2.20;99.90
23116;DHT22;11727;52.134;5.052;2023-03-03T07:09:26;2.20;99.90
23116;DHT22;11727;52.134;5.052;2023-03-03T07:12:01;2.20;99.90
23116;DHT22;11727;52.134;5.052;2023-03-03T07:14:30;2.20;99.90
23116;DHT22;11727;52.134;5.052;2023-03-03T07:16:57;2.30;99.90
23116;DHT22;11727;52.134;5.052;2023-03-03T07:19:33;2.30;99.90
23116;DHT22;11727;52.134;5.052;2023-03-03T07:22:17;2.30;99.90
23116;DHT22;11727;52.134;5.052;2023-03-03T07:24:47;2.40;99.90
23116;DHT22;11727;52.134;5.052;2023-03-03T07:27:16;2.40;99.90
23116;DHT22;11727;52.134;5.052;2023-03-03T07:29:47;2.40;99.90
23116;DHT22;11727;52.134;5.052;2023-03-03T07:32:36;2.40;99.90
23116;DHT22;11727;52.134;5.052;2023-03-03T07:34:58;2.40;99.90
23116;DHT22;11727;52.134;5.052;2023-03-03T07:39:52;2.40;99.90
23116;DHT22;11727;52.134;5.052;2023-03-03T07:42:34;2.50;99.90
23116;DHT22;11727;52.134;5.052;2023-03-03T07:45:02;2.50;99.90
23116;DHT22;11727;52.134;5.052;2023-03-03T07:47:43;2.60;99.90
23116;DHT22;11727;52.134;5.052;2023-03-03T07:50:26;2.60;99.90
23116;DHT22;11727;52.134;5.052;2023-03-03T07:55:32;2.70;99.90
23116;DHT22;11727;52.134;5.052;2023-03-03T07:58:05;2.70;99.90
23116;DHT22;11727;52.134;5.052;2023-03-03T08:01:21;2.70;99.90
23116;DHT22;11727;52.134;5.052;2023-03-03T08:03:32;2.80;99.90
23116;DHT22;11727;52.134;5.052;2023-03-03T08:06:23;2.80;99.90
23116;DHT22;11727;52.134;5.052;2023-03-03T08:08:45;2.80;99.90
23116;DHT22;11727;52.134;5.052;2023-03-03T08:11:11;2.80;99.90
23116;DHT22;11727;52.134;5.052;2023-03-03T08:13:37;2.90;99.90
23116;DHT22;11727;52.134;5.052;2023-03-03T08:16:17;2.90;99.90
23116;DHT22;11727;52.134;5.052;2023-03-03T08:18:46;2.90;99.90
23116;DHT22;11727;52.134;5.052;2023-03-03T08:21:19;3.00;99.90
23116;DHT22;11727;52.134;5.052;2023-03-03T08:23:45;3.00;99.90
23116;DHT22;11727;52.134;5.052;2023-03-03T08:26:10;3.10;99.90
23116;DHT22;11727;52.134;5.052;2023-03-03T08:28:39;3.10;99.90
23116;DHT22;11727;52.134;5.052;2023-03-03T08:31:04;3.20;99.90
23116;DHT22;11727;52.134;5.052;2023-03-03T08:33:30;3.20;99.90
23116;DHT22;11727;52.134;5.052;2023-03-03T08:35:55;3.30;99.90
23116;DHT22;11727;52.134;5.052;2023-03-03T08:38:21;3.40;99.90
23116;DHT22;11727;52.134;5.052;2023-03-03T08:40:47;3.40;99.90
23116;DHT22;11727;52.134;5.052;2023-03-03T08:43:13;3.40;99.90
23116;DHT22;11727;52.134;5.052;2023-03-03T08:45:45;3.50;99.90
23116;DHT22;11727;52.134;5.052;2023-03-03T08:48:10;3.50;99.90
23116;DHT22;11727;52.134;5.052;2023-03-03T08:50:36;3.50;99.90
23116;DHT22;11727;52.134;5.052;2023-03-03T08:53:02;3.50;99.90
23116;DHT22;11727;52.134;5.052;2023-03-03T08:55:28;3.60;99.90
23116;DHT22;11727;52.134;5.052;2023-03-03T08:57:54;3.60;99.90
23116;DHT22;11727;52.134;5.052;2023-03-03T09:00:19;3.80;99.90
23116;DHT22;11727;52.134;5.052;2023-03-03T09:02:45;3.80;99.90
23116;DHT22;11727;52.134;5.052;2023-03-03T09:05:11;3.90;99.90
23116;DHT22;11727;52.134;5.052;2023-03-03T09:07:37;3.90;99.90
23116;DHT22;11727;52.134;5.052;2023-03-03T09:10:03;3.90;99.90
23116;DHT22;11727;52.134;5.052;2023-03-03T09:14:55;4.10;99.90
23116;DHT22;11727;52.134;5.052;2023-03-03T09:17:25;4.20;99.90
23116;DHT22;11727;52.134;5.052;2023-03-03T09:19:51;4.30;99.90
23116;DHT22;11727;52.134;5.052;2023-03-03T09:22:17;4.40;99.90
23116;DHT22;11727;52.134;5.052;2023-03-03T09:24:44;4.50;99.90
23116;DHT22;11727;52.134;5.052;2023-03-03T09:27:26;4.60;99.90
23116;DHT22;11727;52.134;5.052;2023-03-03T09:29:51;4.90;99.90
23116;DHT22;11727;52.134;5.052;2023-03-03T09:32:25;5.10;99.90
23116;DHT22;11727;52.134;5.052;2023-03-03T09:34:54;5.20;99.90
23116;DHT22;11727;52.134;5.052;2023-03-03T09:37:20;5.40;99.90
23116;DHT22;11727;52.134;5.052;2023-03-03T09:39:48;5.40;99.90
23116;DHT22;11727;52.134;5.052;2023-03-03T09:45:11;5.40;99.90
23116;DHT22;11727;52.134;5.052;2023-03-03T10:00:15;5.00;99.90
23116;DHT22;11727;52.134;5.052;2023-03-03T10:05:20;5.10;99.90
23116;DHT22;11727;52.134;5.052;2023-03-03T10:10:31;5.80;99.90
23116;DHT22;11727;52.134;5.052;2023-03-03T10:15:50;6.30;99.90
23116;DHT22;11727;52.134;5.052;2023-03-03T10:18:29;6.60;99.90
23116;DHT22;11727;52.134;5.052;2023-03-03T10:23:33;7.00;99.90
23116;DHT22;11727;52.134;5.052;2023-03-03T10:26:05;7.30;99.90
23116;DHT22;11727;52.134;5.052;2023-03-03T10:36:24;7.80;99.90
23116;DHT22;11727;52.134;5.052;2023-03-03T10:39:02;7.80;99.90
23116;DHT22;11727;52.134;5.052;2023-03-03T10:41:38;8.10;99.90
23116;DHT22;11727;52.134;5.052;2023-03-03T10:44:14;8.40;99.90
23116;DHT22;11727;52.134;5.052;2023-03-03T10:52:10;8.90;99.90
23116;DHT22;11727;52.134;5.052;2023-03-03T10:57:36;9.00;99.90
23116;DHT22;11727;52.134;5.052;2023-03-03T11:00:22;9.00;99.90
23116;DHT22;11727;52.134;5.052;2023-03-03T11:02:56;9.30;99.90
23116;DHT22;11727;52.134;5.052;2023-03-03T11:08:08;9.40;99.90
23116;DHT22;11727;52.134;5.052;2023-03-03T11:13:14;9.70;99.90
23116;DHT22;11727;52.134;5.052;2023-03-03T11:20:37;9.80;99.90
23116;DHT22;11727;52.134;5.052;2023-03-03T11:23:20;9.80;99.90
23116;DHT22;11727;52.134;5.052;2023-03-03T11:28:20;9.50;99.90
23116;DHT22;11727;52.134;5.052;2023-03-03T11:30:51;9.70;99.90
23116;DHT22;11727;52.134;5.052;2023-03-03T11:33:54;10.20;99.90
23116;DHT22;11727;52.134;5.052;2023-03-03T11:39:01;10.40;99.90
23116;DHT22;11727;52.134;5.052;2023-03-03T11:41:29;10.50;99.90
23116;DHT22;11727;52.134;5.052;2023-03-03T11:54:26;10.50;99.90
23116;DHT22;11727;52.134;5.052;2023-03-03T11:56:55;10.70;99.90
23116;DHT22;11727;52.134;5.052;2023-03-03T12:04:40;10.10;99.90
23116;DHT22;11727;52.134;5.052;2023-03-03T12:09:37;9.50;99.90
23116;DHT22;11727;52.134;5.052;2023-03-03T12:22:26;8.70;99.90
23116;DHT22;11727;52.134;5.052;2023-03-03T12:24:59;8.80;99.90
23116;DHT22;11727;52.134;5.052;2023-03-03T12:30:04;8.80;99.90
23116;DHT22;11727;52.134;5.052;2023-03-03T12:41:16;8.80;99.90
23116;DHT22;11727;52.134;5.052;2023-03-03T12:46:24;9.30;99.90
23116;DHT22;11727;52.134;5.052;2023-03-03T12:48:53;9.70;99.90
23116;DHT22;11727;52.134;5.052;2023-03-03T12:59:18;9.90;99.90
23116;DHT22;11727;52.134;5.052;2023-03-03T13:04:42;9.20;99.90
23116;DHT22;11727;52.134;5.052;2023-03-03T13:14:52;9.20;99.90
23116;DHT22;11727;52.134;5.052;2023-03-03T13:20:02;10.00;99.90
23116;DHT22;11727;52.134;5.052;2023-03-03T13:27:26;10.60;99.90
23116;DHT22;11727;52.134;5.052;2023-03-03T13:35:19;10.90;99.90
23116;DHT22;11727;52.134;5.052;2023-03-03T13:37:48;10.80;99.90
23116;DHT22;11727;52.134;5.052;2023-03-03T13:40:18;10.70;99.90
23116;DHT22;11727;52.134;5.052;2023-03-03T13:42:47;10.50;99.90
23116;DHT22;11727;52.134;5.052;2023-03-03T13:47:44;10.30;99.90
23116;DHT22;11727;52.134;5.052;2023-03-03T13:50:29;10.40;99.90
23116;DHT22;11727;52.134;5.052;2023-03-03T13:54:00;10.20;99.90
23116;DHT22;11727;52.134;5.052;2023-03-03T14:03:32;9.60;99.90
23116;DHT22;11727;52.134;5.052;2023-03-03T14:06:06;9.40;99.90
23116;DHT22;11727;52.134;5.052;2023-03-03T14:16:21;8.60;99.90
23116;DHT22;11727;52.134;5.052;2023-03-03T14:18:58;8.50;99.90
23116;DHT22;11727;52.134;5.052;2023-03-03T14:23:53;8.40;99.90
23116;DHT22;11727;52.134;5.052;2023-03-03T14:26:23;8.40;99.90
23116;DHT22;11727;52.134;5.052;2023-03-03T14:28:49;8.40;99.90
23116;DHT22;11727;52.134;5.052;2023-03-03T14:31:26;8.30;99.90
23116;DHT22;11727;52.134;5.052;2023-03-03T14:34:02;8.20;99.90
23116;DHT22;11727;52.134;5.052;2023-03-03T14:36:38;8.20;99.90
23116;DHT22;11727;52.134;5.052;2023-03-03T14:41:48;8.40;99.90
23116;DHT22;11727;52.134;5.052;2023-03-03T14:44:23;8.40;99.90
23116;DHT22;11727;52.134;5.052;2023-03-03T14:47:10;8.30;99.90
23116;DHT22;11727;52.134;5.052;2023-03-03T14:49:37;8.30;99.90
23116;DHT22;11727;52.134;5.052;2023-03-03T14:54:44;8.20;99.90
23116;DHT22;11727;52.134;5.052;2023-03-03T14:57:12;8.00;99.90
23116;DHT22;11727;52.134;5.052;2023-03-03T14:59:39;8.00;99.90
23116;DHT22;11727;52.134;5.052;2023-03-03T15:02:19;8.10;99.90
23116;DHT22;11727;52.134;5.052;2023-03-03T15:04:48;8.20;99.90
23116;DHT22;11727;52.134;5.052;2023-03-03T15:07:26;8.20;99.90
23116;DHT22;11727;52.134;5.052;2023-03-03T15:09:53;8.30;99.90
23116;DHT22;11727;52.134;5.052;2023-03-03T15:12:19;8.30;99.90
23116;DHT22;11727;52.134;5.052;2023-03-03T15:14:46;8.30;99.90
23116;DHT22;11727;52.134;5.052;2023-03-03T15:19:51;8.20;99.90
23116;DHT22;11727;52.134;5.052;2023-03-03T15:24:51;7.80;99.90
23116;DHT22;11727;52.134;5.052;2023-03-03T15:27:27;7.80;99.90
23116;DHT22;11727;52.134;5.052;2023-03-03T15:40:11;7.70;99.90
23116;DHT22;11727;52.134;5.052;2023-03-03T15:42:47;7.60;99.90
23116;DHT22;11727;52.134;5.052;2023-03-03T15:45:16;7.60;99.90
23116;DHT22;11727;52.134;5.052;2023-03-03T16:03:18;7.80;99.90
23116;DHT22;11727;52.134;5.052;2023-03-03T16:05:48;7.70;99.90
23116;DHT22;11727;52.134;5.052;2023-03-03T16:08:18;7.60;99.90
23116;DHT22;11727;52.134;5.052;2023-03-03T16:10:49;7.50;99.90
23116;DHT22;11727;52.134;5.052;2023-03-03T16:16:01;7.50;99.90
23116;DHT22;11727;52.134;5.052;2023-03-03T16:18:36;7.40;99.90
23116;DHT22;11727;52.134;5.052;2023-03-03T16:23:49;7.50;99.90
23116;DHT22;11727;52.134;5.052;2023-03-03T16:26:32;7.40;99.90
23116;DHT22;11727;52.134;5.052;2023-03-03T16:39:19;7.50;99.90
23116;DHT22;11727;52.134;5.052;2023-03-03T16:44:29;7.40;99.90
23116;DHT22;11727;52.134;5.052;2023-03-03T16:47:04;7.40;99.90
23116;DHT22;11727;52.134;5.052;2023-03-03T16:49:38;7.40;99.90
23116;DHT22;11727;52.134;5.052;2023-03-03T16:52:13;7.30;99.90
23116;DHT22;11727;52.134;5.052;2023-03-03T16:54:58;7.30;99.90
23116;DHT22;11727;52.134;5.052;2023-03-03T16:57:44;7.30;99.90
23116;DHT22;11727;52.134;5.052;2023-03-03T17:00:18;7.20;99.90
23116;DHT22;11727;52.134;5.052;2023-03-03T17:02:52;7.20;99.90
23116;DHT22;11727;52.134;5.052;2023-03-03T17:05:23;7.20;99.90
23116;DHT22;11727;52.134;5.052;2023-03-03T17:13:11;7.00;99.90
23116;DHT22;11727;52.134;5.052;2023-03-03T17:20:49;7.00;99.90
23116;DHT22;11727;52.134;5.052;2023-03-03T17:30:44;7.00;99.90
23116;DHT22;11727;52.134;5.052;2023-03-03T17:36:06;7.00;99.90
23116;DHT22;11727;52.134;5.052;2023-03-03T17:38:42;7.00;99.90
23116;DHT22;11727;52.134;5.052;2023-03-03T17:45:59;6.90;99.90
23116;DHT22;11727;52.134;5.052;2023-03-03T17:56:33;6.90;99.90
23116;DHT22;11727;52.134;5.052;2023-03-03T17:59:15;6.90;99.90
23116;DHT22;11727;52.134;5.052;2023-03-03T18:06:44;6.80;99.90
23116;DHT22;11727;52.134;5.052;2023-03-03T18:14:24;6.70;99.90
23116;DHT22;11727;52.134;5.052;2023-03-03T18:16:59;6.60;99.90
23116;DHT22;11727;52.134;5.052;2023-03-03T18:20:07;6.60;99.90
23116;DHT22;11727;52.134;5.052;2023-03-03T18:22:21;6.60;99.90
23116;DHT22;11727;52.134;5.052;2023-03-03T18:37:47;6.40;99.90
23116;DHT22;11727;52.134;5.052;2023-03-03T18:40:26;6.40;99.90
23116;DHT22;11727;52.134;5.052;2023-03-03T18:42:52;6.30;99.90
23116;DHT22;11727;52.134;5.052;2023-03-03T18:55:44;6.30;99.90
23116;DHT22;11727;52.134;5.052;2023-03-03T19:00:41;6.30;99.90
23116;DHT22;11727;52.134;5.052;2023-03-03T19:03:18;6.30;99.90
23116;DHT22;11727;52.134;5.052;2023-03-03T19:05:48;6.30;99.90
23116;DHT22;11727;52.134;5.052;2023-03-03T19:10:49;6.30;99.90
23116;DHT22;11727;52.134;5.052;2023-03-03T19:16:00;6.30;99.90
23116;DHT22;11727;52.134;5.052;2023-03-03T19:18:26;6.30;99.90
23116;DHT22;11727;52.134;5.052;2023-03-03T19:23:19;6.30;99.90
23116;DHT22;11727;52.134;5.052;2023-03-03T19:25:45;6.30;99.90
23116;DHT22;11727;52.134;5.052;2023-03-03T19:31:24;6.30;99.90
23116;DHT22;11727;52.134;5.052;2023-03-03T19:33:55;6.30;99.90
23116;DHT22;11727;52.134;5.052;2023-03-03T19:36:34;6.20;99.90
23116;DHT22;11727;52.134;5.052;2023-03-03T19:42:08;6.30;99.90
23116;DHT22;11727;52.134;5.052;2023-03-03T19:44:40;6.30;99.90
23116;DHT22;11727;52.134;5.052;2023-03-03T19:47:15;6.30;99.90
23116;DHT22;11727;52.134;5.052;2023-03-03T19:52:29;6.30;99.90
23116;DHT22;11727;52.134;5.052;2023-03-03T19:55:01;6.30;99.90
23116;DHT22;11727;52.134;5.052;2023-03-03T19:57:33;6.30;99.90
23116;DHT22;11727;52.134;5.052;2023-03-03T20:00:06;6.30;99.90
23116;DHT22;11727;52.134;5.052;2023-03-03T20:02:40;6.30;99.90
23116;DHT22;11727;52.134;5.052;2023-03-03T20:18:21;6.30;99.90
23116;DHT22;11727;52.134;5.052;2023-03-03T20:20:55;6.20;99.90
23116;DHT22;11727;52.134;5.052;2023-03-03T20:23:28;6.30;99.90
23116;DHT22;11727;52.134;5.052;2023-03-03T20:25:59;6.30;99.90
23116;DHT22;11727;52.134;5.052;2023-03-03T20:28:34;6.30;99.90
23116;DHT22;11727;52.134;5.052;2023-03-03T20:31:04;6.30;99.90
23116;DHT22;11727;52.134;5.052;2023-03-03T20:33:36;6.30;99.90
23116;DHT22;11727;52.134;5.052;2023-03-03T20:38:50;6.30;99.90
23116;DHT22;11727;52.134;5.052;2023-03-03T20:41:26;6.30;99.90
23116;DHT22;11727;52.134;5.052;2023-03-03T20:43:58;6.30;99.90
23116;DHT22;11727;52.134;5.052;2023-03-03T20:46:31;6.30;99.90
23116;DHT22;11727;52.134;5.052;2023-03-03T20:49:04;6.30;99.90
23116;DHT22;11727;52.134;5.052;2023-03-03T20:54:19;6.30;99.90
23116;DHT22;11727;52.134;5.052;2023-03-03T20:56:55;6.30;99.90
23116;DHT22;11727;52.134;5.052;2023-03-03T20:59:48;6.30;99.90
23116;DHT22;11727;52.134;5.052;2023-03-03T21:04:36;6.30;99.90
23116;DHT22;11727;52.134;5.052;2023-03-03T21:07:03;6.30;99.90
23116;DHT22;11727;52.134;5.052;2023-03-03T21:09:36;6.30;99.90
23116;DHT22;11727;52.134;5.052;2023-03-03T21:14:57;6.30;99.90
23116;DHT22;11727;52.134;5.052;2023-03-03T21:17:25;6.30;99.90
23116;DHT22;11727;52.134;5.052;2023-03-03T21:19:50;6.30;99.90
23116;DHT22;11727;52.134;5.052;2023-03-03T21:22:16;6.30;99.90
23116;DHT22;11727;52.134;5.052;2023-03-03T21:24:46;6.30;99.90
23116;DHT22;11727;52.134;5.052;2023-03-03T21:30:00;6.30;99.90
23116;DHT22;11727;52.134;5.052;2023-03-03T21:32:36;6.30;99.90
23116;DHT22;11727;52.134;5.052;2023-03-03T21:35:03;6.30;99.90
23116;DHT22;11727;52.134;5.052;2023-03-03T21:37:43;6.30;99.90
23116;DHT22;11727;52.134;5.052;2023-03-03T21:40:13;6.30;99.90
23116;DHT22;11727;52.134;5.052;2023-03-03T21:42:39;6.40;99.90